Kingston, New Mexico
Current Conditions -  °F | °C
As of 8:53 AM on Monday 22 Dec 2014 (Local Time) from KTCS Reporting Station
Clear Clear  
Wind Chill: 56°   Ceiling: Unl
Heat Index: 56°   Visibility: 10mi
Dew Point: 32°   Wind: 13mph
Humidity: 40%   Direction: 310°NW
Pressure: 29.92"   Gusts: 22mph
Location:  32.8972°N, 107.644°W
Report Text: KTCS 221553Z AUTO 31011G19KT 10SM CLR 13/00 A2992 RMK AO2 SLP082 T01330000 TSNO
Loading
Personal Weather Stations






























Interactive Weather Map New forecast layout! Learn more

10-Day Weather Forecast

Advertisements
Track Severe Weather on mobile